sensor_id;sensor_type;location;lat;lon;timestamp;P1;durP1;ratioP1;P2;durP2;ratioP2
58661;SDS011;44432;49.786;22.760;2023-05-07T00:00:29;45.50;;;16.90;;
58661;SDS011;44432;49.786;22.760;2023-05-07T00:03:19;41.10;;;16.60;;
58661;SDS011;44432;49.786;22.760;2023-05-07T00:05:50;23.00;;;16.20;;
58661;SDS011;44432;49.786;22.760;2023-05-07T00:08:21;21.30;;;17.00;;
58661;SDS011;44432;49.786;22.760;2023-05-07T00:10:51;18.10;;;15.80;;
58661;SDS011;44432;49.786;22.760;2023-05-07T00:13:22;21.60;;;16.90;;
58661;SDS011;44432;49.786;22.760;2023-05-07T00:15:52;21.00;;;17.30;;
58661;SDS011;44432;49.786;22.760;2023-05-07T00:18:23;24.00;;;18.10;;
58661;SDS011;44432;49.786;22.760;2023-05-07T00:20:53;19.30;;;16.30;;
58661;SDS011;44432;49.786;22.760;2023-05-07T00:23:24;21.90;;;17.60;;
58661;SDS011;44432;49.786;22.760;2023-05-07T00:25:55;21.00;;;17.30;;
58661;SDS011;44432;49.786;22.760;2023-05-07T00:28:26;23.00;;;18.00;;
58661;SDS011;44432;49.786;22.760;2023-05-07T00:30:56;21.10;;;18.20;;
58661;SDS011;44432;49.786;22.760;2023-05-07T00:33:27;19.10;;;16.80;;
58661;SDS011;44432;49.786;22.760;2023-05-07T00:35:57;20.40;;;16.90;;
58661;SDS011;44432;49.786;22.760;2023-05-07T00:38:29;18.70;;;16.60;;
58661;SDS011;44432;49.786;22.760;2023-05-07T00:41:03;20.60;;;16.50;;
58661;SDS011;44432;49.786;22.760;2023-05-07T00:43:34;20.90;;;17.00;;
58661;SDS011;44432;49.786;22.760;2023-05-07T00:46:05;22.20;;;17.10;;
58661;SDS011;44432;49.786;22.760;2023-05-07T00:48:36;20.80;;;17.00;;
58661;SDS011;44432;49.786;22.760;2023-05-07T00:51:06;20.10;;;16.30;;
58661;SDS011;44432;49.786;22.760;2023-05-07T00:53:38;18.30;;;16.30;;
58661;SDS011;44432;49.786;22.760;2023-05-07T00:56:09;17.90;;;16.00;;
58661;SDS011;44432;49.786;22.760;2023-05-07T00:58:41;21.50;;;17.00;;
58661;SDS011;44432;49.786;22.760;2023-05-07T01:01:11;19.70;;;16.40;;
58661;SDS011;44432;49.786;22.760;2023-05-07T01:03:43;22.40;;;17.00;;
58661;SDS011;44432;49.786;22.760;2023-05-07T01:06:14;21.20;;;17.50;;
58661;SDS011;44432;49.786;22.760;2023-05-07T01:08:46;19.50;;;16.60;;
58661;SDS011;44432;49.786;22.760;2023-05-07T01:11:18;20.20;;;17.50;;
58661;SDS011;44432;49.786;22.760;2023-05-07T01:13:49;21.30;;;18.30;;
58661;SDS011;44432;49.786;22.760;2023-05-07T01:16:21;23.70;;;16.90;;
58661;SDS011;44432;49.786;22.760;2023-05-07T01:18:51;20.10;;;17.20;;
58661;SDS011;44432;49.786;22.760;2023-05-07T01:21:23;21.70;;;16.90;;
58661;SDS011;44432;49.786;22.760;2023-05-07T01:23:55;21.50;;;18.80;;
58661;SDS011;44432;49.786;22.760;2023-05-07T01:26:26;23.30;;;18.80;;
58661;SDS011;44432;49.786;22.760;2023-05-07T01:28:57;22.90;;;18.70;;
58661;SDS011;44432;49.786;22.760;2023-05-07T01:31:27;25.10;;;19.50;;
58661;SDS011;44432;49.786;22.760;2023-05-07T01:33:58;26.60;;;21.80;;
58661;SDS011;44432;49.786;22.760;2023-05-07T01:36:30;33.70;;;24.20;;
58661;SDS011;44432;49.786;22.760;2023-05-07T01:39:03;30.10;;;23.30;;
58661;SDS011;44432;49.786;22.760;2023-05-07T01:41:34;33.30;;;24.80;;
58661;SDS011;44432;49.786;22.760;2023-05-07T01:44:06;33.40;;;25.00;;
58661;SDS011;44432;49.786;22.760;2023-05-07T01:46:37;33.50;;;25.40;;
58661;SDS011;44432;49.786;22.760;2023-05-07T01:49:07;31.40;;;23.90;;
58661;SDS011;44432;49.786;22.760;2023-05-07T01:51:38;35.30;;;25.10;;
58661;SDS011;44432;49.786;22.760;2023-05-07T01:54:10;32.50;;;24.20;;
58661;SDS011;44432;49.786;22.760;2023-05-07T01:56:40;27.90;;;22.90;;
58661;SDS011;44432;49.786;22.760;2023-05-07T01:59:11;29.40;;;22.00;;
58661;SDS011;44432;49.786;22.760;2023-05-07T02:01:42;25.00;;;20.50;;
58661;SDS011;44432;49.786;22.760;2023-05-07T02:04:12;26.90;;;20.80;;
58661;SDS011;44432;49.786;22.760;2023-05-07T02:06:43;25.30;;;20.00;;
58661;SDS011;44432;49.786;22.760;2023-05-07T02:09:13;22.70;;;18.80;;
58661;SDS011;44432;49.786;22.760;2023-05-07T02:11:44;22.80;;;18.40;;
58661;SDS011;44432;49.786;22.760;2023-05-07T02:14:15;22.10;;;18.10;;
58661;SDS011;44432;49.786;22.760;2023-05-07T02:16:45;23.70;;;17.20;;
58661;SDS011;44432;49.786;22.760;2023-05-07T02:19:16;20.60;;;17.00;;
58661;SDS011;44432;49.786;22.760;2023-05-07T02:21:48;22.00;;;16.70;;
58661;SDS011;44432;49.786;22.760;2023-05-07T02:24:20;19.40;;;16.70;;
58661;SDS011;44432;49.786;22.760;2023-05-07T02:26:51;19.90;;;16.00;;
58661;SDS011;44432;49.786;22.760;2023-05-07T02:29:21;19.90;;;16.40;;
58661;SDS011;44432;49.786;22.760;2023-05-07T02:31:52;22.00;;;17.10;;
58661;SDS011;44432;49.786;22.760;2023-05-07T02:34:23;19.00;;;15.50;;
58661;SDS011;44432;49.786;22.760;2023-05-07T02:36:53;19.70;;;15.40;;
58661;SDS011;44432;49.786;22.760;2023-05-07T02:39:24;17.80;;;15.30;;
58661;SDS011;44432;49.786;22.760;2023-05-07T02:41:54;19.30;;;15.30;;
58661;SDS011;44432;49.786;22.760;2023-05-07T02:44:25;19.60;;;15.50;;
58661;SDS011;44432;49.786;22.760;2023-05-07T02:46:59;19.40;;;14.90;;
58661;SDS011;44432;49.786;22.760;2023-05-07T02:49:29;20.50;;;16.20;;
58661;SDS011;44432;49.786;22.760;2023-05-07T02:52:00;20.60;;;15.60;;
58661;SDS011;44432;49.786;22.760;2023-05-07T02:54:30;20.30;;;16.10;;
58661;SDS011;44432;49.786;22.760;2023-05-07T02:57:01;19.00;;;16.40;;
58661;SDS011;44432;49.786;22.760;2023-05-07T02:59:31;18.60;;;14.50;;
58661;SDS011;44432;49.786;22.760;2023-05-07T03:02:02;19.10;;;15.40;;
58661;SDS011;44432;49.786;22.760;2023-05-07T03:04:33;19.20;;;14.60;;
58661;SDS011;44432;49.786;22.760;2023-05-07T03:07:03;17.20;;;14.60;;
58661;SDS011;44432;49.786;22.760;2023-05-07T03:09:34;17.70;;;14.00;;
58661;SDS011;44432;49.786;22.760;2023-05-07T03:12:05;17.90;;;14.10;;
58661;SDS011;44432;49.786;22.760;2023-05-07T03:14:35;22.80;;;14.90;;
58661;SDS011;44432;49.786;22.760;2023-05-07T03:17:06;17.80;;;14.40;;
58661;SDS011;44432;49.786;22.760;2023-05-07T03:19:36;20.60;;;14.90;;
58661;SDS011;44432;49.786;22.760;2023-05-07T03:22:07;18.60;;;14.70;;
58661;SDS011;44432;49.786;22.760;2023-05-07T03:24:38;17.60;;;14.00;;
58661;SDS011;44432;49.786;22.760;2023-05-07T03:27:08;18.20;;;14.40;;
58661;SDS011;44432;49.786;22.760;2023-05-07T03:29:39;18.00;;;14.30;;
58661;SDS011;44432;49.786;22.760;2023-05-07T03:32:09;18.10;;;13.80;;
58661;SDS011;44432;49.786;22.760;2023-05-07T03:34:40;17.60;;;13.90;;
58661;SDS011;44432;49.786;22.760;2023-05-07T03:37:11;21.00;;;13.90;;
58661;SDS011;44432;49.786;22.760;2023-05-07T03:39:41;18.00;;;13.90;;
58661;SDS011;44432;49.786;22.760;2023-05-07T03:42:12;17.10;;;13.70;;
58661;SDS011;44432;49.786;22.760;2023-05-07T03:44:43;18.30;;;13.90;;
58661;SDS011;44432;49.786;22.760;2023-05-07T03:47:13;16.20;;;13.40;;
58661;SDS011;44432;49.786;22.760;2023-05-07T03:49:44;16.70;;;14.00;;
58661;SDS011;44432;49.786;22.760;2023-05-07T03:52:15;18.90;;;13.10;;
58661;SDS011;44432;49.786;22.760;2023-05-07T03:54:50;15.60;;;13.10;;
58661;SDS011;44432;49.786;22.760;2023-05-07T03:57:20;16.40;;;12.60;;
58661;SDS011;44432;49.786;22.760;2023-05-07T03:59:51;15.60;;;13.10;;
58661;SDS011;44432;49.786;22.760;2023-05-07T04:02:21;18.30;;;13.10;;
58661;SDS011;44432;49.786;22.760;2023-05-07T04:04:52;17.00;;;12.40;;
58661;SDS011;44432;49.786;22.760;2023-05-07T04:07:22;16.30;;;12.50;;
58661;SDS011;44432;49.786;22.760;2023-05-07T04:09:53;15.70;;;12.30;;
58661;SDS011;44432;49.786;22.760;2023-05-07T04:12:24;16.80;;;11.90;;
58661;SDS011;44432;49.786;22.760;2023-05-07T04:14:54;16.30;;;12.50;;
58661;SDS011;44432;49.786;22.760;2023-05-07T04:17:25;13.90;;;11.70;;
58661;SDS011;44432;49.786;22.760;2023-05-07T04:19:55;14.00;;;11.30;;
58661;SDS011;44432;49.786;22.760;2023-05-07T04:22:26;14.80;;;10.90;;
58661;SDS011;44432;49.786;22.760;2023-05-07T04:24:57;14.90;;;11.20;;
58661;SDS011;44432;49.786;22.760;2023-05-07T04:27:27;12.80;;;10.30;;
58661;SDS011;44432;49.786;22.760;2023-05-07T04:29:58;14.40;;;10.20;;
58661;SDS011;44432;49.786;22.760;2023-05-07T04:32:29;14.50;;;10.60;;
58661;SDS011;44432;49.786;22.760;2023-05-07T04:34:59;15.40;;;10.70;;
58661;SDS011;44432;49.786;22.760;2023-05-07T04:37:31;14.70;;;11.20;;
58661;SDS011;44432;49.786;22.760;2023-05-07T04:40:03;16.10;;;11.50;;
58661;SDS011;44432;49.786;22.760;2023-05-07T04:42:34;15.40;;;11.20;;
58661;SDS011;44432;49.786;22.760;2023-05-07T04:45:06;12.60;;;10.30;;
58661;SDS011;44432;49.786;22.760;2023-05-07T04:47:38;14.10;;;10.40;;
58661;SDS011;44432;49.786;22.760;2023-05-07T04:50:09;13.30;;;9.70;;
58661;SDS011;44432;49.786;22.760;2023-05-07T04:52:41;12.10;;;9.40;;
58661;SDS011;44432;49.786;22.760;2023-05-07T04:55:11;13.00;;;9.70;;
58661;SDS011;44432;49.786;22.760;2023-05-07T04:57:42;11.80;;;9.50;;
58661;SDS011;44432;49.786;22.760;2023-05-07T05:00:13;11.80;;;9.30;;
58661;SDS011;44432;49.786;22.760;2023-05-07T05:02:47;11.70;;;8.70;;
58661;SDS011;44432;49.786;22.760;2023-05-07T05:05:18;13.60;;;8.90;;
58661;SDS011;44432;49.786;22.760;2023-05-07T05:07:49;11.90;;;9.70;;
58661;SDS011;44432;49.786;22.760;2023-05-07T05:10:21;13.80;;;8.80;;
58661;SDS011;44432;49.786;22.760;2023-05-07T05:12:52;10.80;;;8.00;;
58661;SDS011;44432;49.786;22.760;2023-05-07T05:15:23;10.30;;;8.20;;
58661;SDS011;44432;49.786;22.760;2023-05-07T05:17:53;10.10;;;7.80;;
58661;SDS011;44432;49.786;22.760;2023-05-07T05:20:24;10.20;;;6.90;;
58661;SDS011;44432;49.786;22.760;2023-05-07T05:22:55;9.40;;;6.60;;
58661;SDS011;44432;49.786;22.760;2023-05-07T05:25:26;12.50;;;7.40;;
58661;SDS011;44432;49.786;22.760;2023-05-07T05:27:57;8.70;;;6.70;;
58661;SDS011;44432;49.786;22.760;2023-05-07T05:30:27;8.60;;;6.40;;
58661;SDS011;44432;49.786;22.760;2023-05-07T05:32:58;8.70;;;6.40;;
58661;SDS011;44432;49.786;22.760;2023-05-07T05:35:29;9.50;;;6.90;;
58661;SDS011;44432;49.786;22.760;2023-05-07T05:38:00;10.10;;;7.50;;
58661;SDS011;44432;49.786;22.760;2023-05-07T05:40:31;8.00;;;6.60;;
58661;SDS011;44432;49.786;22.760;2023-05-07T05:43:02;12.20;;;6.80;;
58661;SDS011;44432;49.786;22.760;2023-05-07T05:45:32;9.90;;;6.70;;
58661;SDS011;44432;49.786;22.760;2023-05-07T05:48:04;8.90;;;6.80;;
58661;SDS011;44432;49.786;22.760;2023-05-07T05:50:36;11.20;;;7.60;;
58661;SDS011;44432;49.786;22.760;2023-05-07T05:53:06;8.70;;;7.20;;
58661;SDS011;44432;49.786;22.760;2023-05-07T05:55:37;9.00;;;7.00;;
58661;SDS011;44432;49.786;22.760;2023-05-07T05:58:08;9.20;;;7.00;;
58661;SDS011;44432;49.786;22.760;2023-05-07T06:00:39;10.80;;;7.20;;
58661;SDS011;44432;49.786;22.760;2023-05-07T06:03:09;10.80;;;7.20;;
58661;SDS011;44432;49.786;22.760;2023-05-07T06:05:40;12.70;;;8.20;;
58661;SDS011;44432;49.786;22.760;2023-05-07T06:08:11;12.80;;;8.90;;
58661;SDS011;44432;49.786;22.760;2023-05-07T06:10:42;11.20;;;9.20;;
58661;SDS011;44432;49.786;22.760;2023-05-07T06:13:12;11.40;;;9.10;;
58661;SDS011;44432;49.786;22.760;2023-05-07T06:15:43;15.40;;;9.30;;
58661;SDS011;44432;49.786;22.760;2023-05-07T06:18:14;12.00;;;8.60;;
58661;SDS011;44432;49.786;22.760;2023-05-07T06:20:44;13.80;;;9.40;;
58661;SDS011;44432;49.786;22.760;2023-05-07T06:23:15;13.90;;;10.00;;
58661;SDS011;44432;49.786;22.760;2023-05-07T06:25:47;13.90;;;9.10;;
58661;SDS011;44432;49.786;22.760;2023-05-07T06:28:18;15.70;;;9.60;;
58661;SDS011;44432;49.786;22.760;2023-05-07T06:30:49;14.80;;;10.70;;
58661;SDS011;44432;49.786;22.760;2023-05-07T06:33:19;14.00;;;9.80;;
58661;SDS011;44432;49.786;22.760;2023-05-07T06:35:50;16.80;;;9.20;;
58661;SDS011;44432;49.786;22.760;2023-05-07T06:38:21;15.90;;;9.50;;
58661;SDS011;44432;49.786;22.760;2023-05-07T06:40:51;15.90;;;9.60;;
58661;SDS011;44432;49.786;22.760;2023-05-07T06:43:23;12.90;;;9.40;;
58661;SDS011;44432;49.786;22.760;2023-05-07T06:45:54;13.60;;;8.90;;
58661;SDS011;44432;49.786;22.760;2023-05-07T06:48:24;14.90;;;9.20;;
58661;SDS011;44432;49.786;22.760;2023-05-07T06:50:55;18.30;;;9.60;;
58661;SDS011;44432;49.786;22.760;2023-05-07T06:53:26;16.00;;;10.30;;
58661;SDS011;44432;49.786;22.760;2023-05-07T06:55:58;14.90;;;9.40;;
58661;SDS011;44432;49.786;22.760;2023-05-07T06:58:29;15.20;;;9.70;;
58661;SDS011;44432;49.786;22.760;2023-05-07T07:01:00;13.90;;;9.20;;
58661;SDS011;44432;49.786;22.760;2023-05-07T07:03:30;13.30;;;9.30;;
58661;SDS011;44432;49.786;22.760;2023-05-07T07:06:01;16.00;;;9.40;;
58661;SDS011;44432;49.786;22.760;2023-05-07T07:08:32;14.80;;;9.40;;
58661;SDS011;44432;49.786;22.760;2023-05-07T07:11:03;12.70;;;8.90;;
58661;SDS011;44432;49.786;22.760;2023-05-07T07:13:33;11.30;;;8.80;;
58661;SDS011;44432;49.786;22.760;2023-05-07T07:16:04;12.80;;;9.00;;
58661;SDS011;44432;49.786;22.760;2023-05-07T07:18:35;11.80;;;7.80;;
58661;SDS011;44432;49.786;22.760;2023-05-07T07:21:06;12.80;;;8.80;;
58661;SDS011;44432;49.786;22.760;2023-05-07T07:23:36;12.00;;;7.80;;
58661;SDS011;44432;49.786;22.760;2023-05-07T07:26:07;13.50;;;8.10;;
58661;SDS011;44432;49.786;22.760;2023-05-07T07:28:43;20.90;;;9.00;;
58661;SDS011;44432;49.786;22.760;2023-05-07T07:31:14;12.70;;;7.50;;
58661;SDS011;44432;49.786;22.760;2023-05-07T07:33:44;12.70;;;7.40;;
58661;SDS011;44432;49.786;22.760;2023-05-07T07:36:17;15.40;;;7.50;;
58661;SDS011;44432;49.786;22.760;2023-05-07T07:38:48;14.10;;;7.50;;
58661;SDS011;44432;49.786;22.760;2023-05-07T07:41:18;12.30;;;7.90;;
58661;SDS011;44432;49.786;22.760;2023-05-07T07:43:49;12.00;;;7.20;;
58661;SDS011;44432;49.786;22.760;2023-05-07T07:46:20;12.40;;;7.00;;
58661;SDS011;44432;49.786;22.760;2023-05-07T07:48:50;10.40;;;6.60;;
58661;SDS011;44432;49.786;22.760;2023-05-07T07:51:21;12.10;;;6.50;;
58661;SDS011;44432;49.786;22.760;2023-05-07T07:53:52;10.50;;;7.10;;
58661;SDS011;44432;49.786;22.760;2023-05-07T07:56:23;11.20;;;6.80;;
58661;SDS011;44432;49.786;22.760;2023-05-07T07:58:53;10.40;;;6.30;;
58661;SDS011;44432;49.786;22.760;2023-05-07T08:01:24;11.90;;;7.00;;
58661;SDS011;44432;49.786;22.760;2023-05-07T08:03:55;10.80;;;6.20;;
58661;SDS011;44432;49.786;22.760;2023-05-07T08:06:26;10.90;;;6.30;;
58661;SDS011;44432;49.786;22.760;2023-05-07T08:08:57;11.70;;;7.10;;
58661;SDS011;44432;49.786;22.760;2023-05-07T08:11:28;9.90;;;6.90;;
58661;SDS011;44432;49.786;22.760;2023-05-07T08:13:59;15.10;;;6.90;;
58661;SDS011;44432;49.786;22.760;2023-05-07T08:16:29;13.50;;;7.10;;
58661;SDS011;44432;49.786;22.760;2023-05-07T08:19:00;10.50;;;7.10;;
58661;SDS011;44432;49.786;22.760;2023-05-07T08:21:31;12.60;;;6.80;;
58661;SDS011;44432;49.786;22.760;2023-05-07T08:24:03;11.70;;;8.10;;
58661;SDS011;44432;49.786;22.760;2023-05-07T08:26:34;11.20;;;7.50;;
58661;SDS011;44432;49.786;22.760;2023-05-07T08:29:07;11.90;;;6.50;;
58661;SDS011;44432;49.786;22.760;2023-05-07T08:31:37;9.00;;;7.00;;
58661;SDS011;44432;49.786;22.760;2023-05-07T08:34:08;9.30;;;6.10;;
58661;SDS011;44432;49.786;22.760;2023-05-07T08:36:39;11.00;;;6.80;;
58661;SDS011;44432;49.786;22.760;2023-05-07T08:39:10;9.10;;;6.50;;
58661;SDS011;44432;49.786;22.760;2023-05-07T08:41:41;7.90;;;5.80;;
58661;SDS011;44432;49.786;22.760;2023-05-07T08:44:14;10.90;;;5.90;;
58661;SDS011;44432;49.786;22.760;2023-05-07T08:46:49;7.70;;;5.70;;
58661;SDS011;44432;49.786;22.760;2023-05-07T08:49:22;8.20;;;6.00;;
58661;SDS011;44432;49.786;22.760;2023-05-07T08:51:53;9.10;;;5.70;;
58661;SDS011;44432;49.786;22.760;2023-05-07T08:54:24;9.80;;;6.20;;
58661;SDS011;44432;49.786;22.760;2023-05-07T08:56:56;9.60;;;5.90;;
58661;SDS011;44432;49.786;22.760;2023-05-07T08:59:27;8.80;;;6.10;;
58661;SDS011;44432;49.786;22.760;2023-05-07T09:01:58;8.30;;;5.40;;
58661;SDS011;44432;49.786;22.760;2023-05-07T09:04:29;8.80;;;5.70;;
58661;SDS011;44432;49.786;22.760;2023-05-07T09:07:00;9.60;;;5.80;;
58661;SDS011;44432;49.786;22.760;2023-05-07T09:09:33;11.30;;;5.50;;
58661;SDS011;44432;49.786;22.760;2023-05-07T09:12:04;10.00;;;6.50;;
58661;SDS011;44432;49.786;22.760;2023-05-07T09:14:35;9.20;;;5.60;;
58661;SDS011;44432;49.786;22.760;2023-05-07T09:17:06;10.60;;;6.30;;
58661;SDS011;44432;49.786;22.760;2023-05-07T09:19:37;9.70;;;6.20;;
58661;SDS011;44432;49.786;22.760;2023-05-07T09:22:07;10.10;;;5.90;;
58661;SDS011;44432;49.786;22.760;2023-05-07T09:24:38;8.60;;;6.10;;
58661;SDS011;44432;49.786;22.760;2023-05-07T09:27:09;10.40;;;6.20;;
58661;SDS011;44432;49.786;22.760;2023-05-07T09:29:41;9.30;;;6.40;;
58661;SDS011;44432;49.786;22.760;2023-05-07T09:32:11;8.80;;;6.20;;
58661;SDS011;44432;49.786;22.760;2023-05-07T09:34:43;11.80;;;6.10;;
58661;SDS011;44432;49.786;22.760;2023-05-07T09:37:14;10.20;;;6.50;;
58661;SDS011;44432;49.786;22.760;2023-05-07T09:39:46;11.20;;;6.60;;
58661;SDS011;44432;49.786;22.760;2023-05-07T09:42:22;12.50;;;6.60;;
58661;SDS011;44432;49.786;22.760;2023-05-07T09:44:54;11.30;;;6.80;;
58661;SDS011;44432;49.786;22.760;2023-05-07T09:47:24;15.30;;;6.50;;
58661;SDS011;44432;49.786;22.760;2023-05-07T09:50:00;8.60;;;6.30;;
58661;SDS011;44432;49.786;22.760;2023-05-07T09:52:34;9.60;;;6.60;;
58661;SDS011;44432;49.786;22.760;2023-05-07T09:55:07;11.20;;;6.30;;
58661;SDS011;44432;49.786;22.760;2023-05-07T10:00:11;11.40;;;6.60;;
58661;SDS011;44432;49.786;22.760;2023-05-07T10:02:43;8.60;;;6.70;;
58661;SDS011;44432;49.786;22.760;2023-05-07T10:05:17;9.80;;;7.20;;
58661;SDS011;44432;49.786;22.760;2023-05-07T10:07:48;10.70;;;6.50;;
58661;SDS011;44432;49.786;22.760;2023-05-07T10:10:21;11.30;;;6.50;;
58661;SDS011;44432;49.786;22.760;2023-05-07T10:12:52;10.40;;;6.10;;
58661;SDS011;44432;49.786;22.760;2023-05-07T10:15:24;9.70;;;6.40;;
58661;SDS011;44432;49.786;22.760;2023-05-07T10:17:55;9.60;;;6.60;;
58661;SDS011;44432;49.786;22.760;2023-05-07T10:20:25;9.40;;;6.40;;
58661;SDS011;44432;49.786;22.760;2023-05-07T10:22:57;9.70;;;6.20;;
58661;SDS011;44432;49.786;22.760;2023-05-07T10:25:32;8.50;;;6.00;;
58661;SDS011;44432;49.786;22.760;2023-05-07T10:28:04;10.60;;;6.50;;
58661;SDS011;44432;49.786;22.760;2023-05-07T10:30:40;10.20;;;6.00;;
58661;SDS011;44432;49.786;22.760;2023-05-07T10:33:22;11.90;;;6.50;;
58661;SDS011;44432;49.786;22.760;2023-05-07T10:35:57;12.00;;;6.40;;
58661;SDS011;44432;49.786;22.760;2023-05-07T10:38:32;11.50;;;6.80;;
58661;SDS011;44432;49.786;22.760;2023-05-07T10:41:03;10.30;;;8.10;;
58661;SDS011;44432;49.786;22.760;2023-05-07T10:43:40;9.40;;;6.50;;
58661;SDS011;44432;49.786;22.760;2023-05-07T10:46:13;15.00;;;6.30;;
58661;SDS011;44432;49.786;22.760;2023-05-07T10:51:38;11.80;;;6.40;;
58661;SDS011;44432;49.786;22.760;2023-05-07T10:54:24;11.40;;;7.60;;
58661;SDS011;44432;49.786;22.760;2023-05-07T10:56:55;16.50;;;10.60;;
58661;SDS011;44432;49.786;22.760;2023-05-07T11:02:10;15.10;;;8.10;;
58661;SDS011;44432;49.786;22.760;2023-05-07T11:04:43;9.10;;;6.80;;
58661;SDS011;44432;49.786;22.760;2023-05-07T11:07:29;12.40;;;5.70;;
58661;SDS011;44432;49.786;22.760;2023-05-07T11:10:04;9.30;;;5.90;;
58661;SDS011;44432;49.786;22.760;2023-05-07T11:12:49;10.90;;;6.00;;
58661;SDS011;44432;49.786;22.760;2023-05-07T11:15:37;10.00;;;6.10;;
58661;SDS011;44432;49.786;22.760;2023-05-07T11:18:11;11.40;;;6.50;;
58661;SDS011;44432;49.786;22.760;2023-05-07T11:20:46;7.50;;;5.90;;
58661;SDS011;44432;49.786;22.760;2023-05-07T11:26:31;14.00;;;6.60;;
58661;SDS011;44432;49.786;22.760;2023-05-07T11:29:13;12.60;;;6.60;;
58661;SDS011;44432;49.786;22.760;2023-05-07T11:31:45;11.40;;;6.60;;
58661;SDS011;44432;49.786;22.760;2023-05-07T11:34:22;9.60;;;6.60;;
58661;SDS011;44432;49.786;22.760;2023-05-07T11:36:55;12.00;;;7.00;;
58661;SDS011;44432;49.786;22.760;2023-05-07T11:39:28;11.80;;;6.80;;
58661;SDS011;44432;49.786;22.760;2023-05-07T11:42:01;11.00;;;6.70;;
58661;SDS011;44432;49.786;22.760;2023-05-07T11:44:42;16.60;;;7.50;;
58661;SDS011;44432;49.786;22.760;2023-05-07T11:47:18;12.10;;;7.40;;
58661;SDS011;44432;49.786;22.760;2023-05-07T11:49:50;12.30;;;7.30;;
58661;SDS011;44432;49.786;22.760;2023-05-07T11:52:22;14.00;;;7.20;;
58661;SDS011;44432;49.786;22.760;2023-05-07T11:54:54;16.00;;;7.30;;
58661;SDS011;44432;49.786;22.760;2023-05-07T11:57:26;11.00;;;6.70;;
58661;SDS011;44432;49.786;22.760;2023-05-07T11:59:57;13.30;;;7.10;;
58661;SDS011;44432;49.786;22.760;2023-05-07T12:02:29;10.40;;;6.50;;
58661;SDS011;44432;49.786;22.760;2023-05-07T12:05:02;10.80;;;6.40;;
58661;SDS011;44432;49.786;22.760;2023-05-07T12:07:34;15.40;;;7.20;;
58661;SDS011;44432;49.786;22.760;2023-05-07T12:10:05;11.30;;;7.10;;
58661;SDS011;44432;49.786;22.760;2023-05-07T12:12:40;11.60;;;6.60;;
58661;SDS011;44432;49.786;22.760;2023-05-07T12:15:16;10.60;;;6.30;;
58661;SDS011;44432;49.786;22.760;2023-05-07T12:17:51;11.50;;;6.80;;
58661;SDS011;44432;49.786;22.760;2023-05-07T12:20:22;16.00;;;7.00;;
58661;SDS011;44432;49.786;22.760;2023-05-07T12:22:53;9.10;;;6.20;;
58661;SDS011;44432;49.786;22.760;2023-05-07T12:25:25;9.50;;;6.50;;
58661;SDS011;44432;49.786;22.760;2023-05-07T12:27:58;10.80;;;6.50;;
58661;SDS011;44432;49.786;22.760;2023-05-07T12:30:32;13.80;;;6.40;;
58661;SDS011;44432;49.786;22.760;2023-05-07T12:33:07;12.20;;;6.60;;
58661;SDS011;44432;49.786;22.760;2023-05-07T12:35:39;11.00;;;6.50;;
58661;SDS011;44432;49.786;22.760;2023-05-07T12:38:11;11.30;;;6.40;;
58661;SDS011;44432;49.786;22.760;2023-05-07T12:40:43;11.10;;;6.70;;
58661;SDS011;44432;49.786;22.760;2023-05-07T12:43:18;10.20;;;7.50;;
58661;SDS011;44432;49.786;22.760;2023-05-07T12:45:50;13.90;;;7.80;;
58661;SDS011;44432;49.786;22.760;2023-05-07T12:48:23;15.00;;;7.50;;
58661;SDS011;44432;49.786;22.760;2023-05-07T12:50:54;13.70;;;6.70;;
58661;SDS011;44432;49.786;22.760;2023-05-07T12:53:26;11.70;;;7.10;;
58661;SDS011;44432;49.786;22.760;2023-05-07T12:55:59;14.10;;;7.50;;
58661;SDS011;44432;49.786;22.760;2023-05-07T12:58:30;11.20;;;7.00;;
58661;SDS011;44432;49.786;22.760;2023-05-07T13:01:05;11.10;;;6.80;;
58661;SDS011;44432;49.786;22.760;2023-05-07T13:06:07;11.40;;;6.70;;
58661;SDS011;44432;49.786;22.760;2023-05-07T13:08:40;10.10;;;6.50;;
58661;SDS011;44432;49.786;22.760;2023-05-07T13:11:12;11.70;;;6.50;;
58661;SDS011;44432;49.786;22.760;2023-05-07T13:13:43;8.70;;;6.00;;
58661;SDS011;44432;49.786;22.760;2023-05-07T13:16:14;8.20;;;5.50;;
58661;SDS011;44432;49.786;22.760;2023-05-07T13:18:45;8.20;;;6.00;;
58661;SDS011;44432;49.786;22.760;2023-05-07T13:21:15;8.80;;;6.30;;
58661;SDS011;44432;49.786;22.760;2023-05-07T13:23:46;12.10;;;6.00;;
58661;SDS011;44432;49.786;22.760;2023-05-07T13:26:17;6.90;;;5.30;;
58661;SDS011;44432;49.786;22.760;2023-05-07T13:28:48;12.40;;;5.80;;
58661;SDS011;44432;49.786;22.760;2023-05-07T13:31:18;8.80;;;5.60;;
58661;SDS011;44432;49.786;22.760;2023-05-07T13:33:49;8.60;;;5.60;;
58661;SDS011;44432;49.786;22.760;2023-05-07T13:36:20;9.70;;;6.20;;
58661;SDS011;44432;49.786;22.760;2023-05-07T13:38:51;10.80;;;6.30;;
58661;SDS011;44432;49.786;22.760;2023-05-07T13:41:21;9.90;;;6.60;;
58661;SDS011;44432;49.786;22.760;2023-05-07T13:43:52;9.50;;;6.30;;
58661;SDS011;44432;49.786;22.760;2023-05-07T13:46:22;11.20;;;5.80;;
58661;SDS011;44432;49.786;22.760;2023-05-07T13:48:53;7.50;;;5.30;;
58661;SDS011;44432;49.786;22.760;2023-05-07T13:51:24;8.30;;;5.40;;
58661;SDS011;44432;49.786;22.760;2023-05-07T13:53:54;8.40;;;5.00;;
58661;SDS011;44432;49.786;22.760;2023-05-07T13:56:26;9.10;;;5.50;;
58661;SDS011;44432;49.786;22.760;2023-05-07T13:58:58;10.20;;;6.00;;
58661;SDS011;44432;49.786;22.760;2023-05-07T14:01:30;7.10;;;4.30;;
58661;SDS011;44432;49.786;22.760;2023-05-07T14:04:01;6.80;;;4.50;;
58661;SDS011;44432;49.786;22.760;2023-05-07T14:06:32;8.70;;;4.50;;
58661;SDS011;44432;49.786;22.760;2023-05-07T14:09:02;6.10;;;3.90;;
58661;SDS011;44432;49.786;22.760;2023-05-07T14:11:33;5.30;;;3.80;;
58661;SDS011;44432;49.786;22.760;2023-05-07T14:14:04;5.20;;;3.50;;
58661;SDS011;44432;49.786;22.760;2023-05-07T14:16:34;8.80;;;4.30;;
58661;SDS011;44432;49.786;22.760;2023-05-07T14:19:05;7.90;;;4.00;;
58661;SDS011;44432;49.786;22.760;2023-05-07T14:21:36;6.30;;;3.00;;
58661;SDS011;44432;49.786;22.760;2023-05-07T14:24:07;5.90;;;2.50;;
58661;SDS011;44432;49.786;22.760;2023-05-07T14:26:38;6.00;;;3.20;;
58661;SDS011;44432;49.786;22.760;2023-05-07T14:29:08;6.20;;;3.10;;
58661;SDS011;44432;49.786;22.760;2023-05-07T14:31:39;4.90;;;2.90;;
58661;SDS011;44432;49.786;22.760;2023-05-07T14:34:10;4.80;;;2.60;;
58661;SDS011;44432;49.786;22.760;2023-05-07T14:36:40;4.30;;;2.50;;
58661;SDS011;44432;49.786;22.760;2023-05-07T14:39:11;4.60;;;2.40;;
58661;SDS011;44432;49.786;22.760;2023-05-07T14:41:42;4.80;;;2.70;;
58661;SDS011;44432;49.786;22.760;2023-05-07T14:44:12;3.70;;;2.20;;
58661;SDS011;44432;49.786;22.760;2023-05-07T14:46:43;4.00;;;2.00;;
58661;SDS011;44432;49.786;22.760;2023-05-07T14:49:14;4.70;;;2.50;;
58661;SDS011;44432;49.786;22.760;2023-05-07T14:51:45;5.90;;;2.70;;
58661;SDS011;44432;49.786;22.760;2023-05-07T14:54:16;7.60;;;3.20;;
58661;SDS011;44432;49.786;22.760;2023-05-07T14:56:47;3.80;;;1.90;;
58661;SDS011;44432;49.786;22.760;2023-05-07T14:59:17;3.40;;;2.30;;